SBOSBO STR / EDDS
Speedbird OnlineSpeedbird Online STR / EDDS

Stuttgart Airport
08:58 12.5°C

Location Stuttgart, Germany
Latitude: 48.689899444599995
Longitude: 9.22196006775
Web Airport Website | Wikipedia
Altitude 389 Meter / 1276 Feet
Distance 719 KM / 447 Miles
from London.
Time Zone UTC +2 hours (Europe/Berlin)
Codes IATA: STR
ICAO: EDDS
Currency £1 equals EUR 1.15
Runways
RunwayLength (m)Surface
073345Concrete
253345Concrete
Radio
TypeDescriptionFrequency
APPLangen Radar Approach119.2
ATISATIS126.13
CLDCLNC DEL121.915
DIRStuttgart Director119.85
GNDStuttgart Ground118.605
INFOLANGEN INFO128.95
MISCDEICING121.63
RDRLANGEN RADAR119.2
RMPAPRON121.7
TWRTWR118.805
Live ATC
METAR EDDS 060620Z AUTO 30003KT 9999 SCT035 OVC044 13/10 Q1029 NOSIG
TAF TAF EDDS 060500Z 0606/0706 26004KT 9999 BKN030 BECMG 0607/0609 32006KT BECMG 0615/0617 VRB02KT BECMG 0701/0703 1500 BCFG TEMPO 0703/0706 0500 FG BKN001
Weather As Of 06 Oct 2022 08:54
Description Overcast clouds
Wind 6 km/h from North-West (300°)
Cloud Cover 100%
Precipitation Rain: none, Snow: none
Sunrise 07:29
Sunset 18:52
Rotations During the last 90 days there were
142 flights from LHR
141 flights to LHR
1 flights to LTN


© 2017-2022 Speedbird Online